Darlington, United Kingdom
Current Conditions -  °F | °C
As of 1:20 PM on Tuesday 21 Oct 2014 (Local Time) from EGNV Reporting Station
Few Clouds Few Clouds  
Wind Chill: 54°   Ceiling: Unl
Heat Index: 54°   Visibility: 6mi
Dew Point: 36°   Wind: 31mph
Humidity: 51%   Direction: 290°WNW
Pressure: 29.47"   Gusts: 49mph
Location:  54.54°N, 1.56°W
Report Text: EGNV 211220Z 29027G43KT 9999 FEW030 12/02 Q0998
Loading
Personal Weather Stations






























Interactive Weather Map
Tropical Storm Tracking
New forecast layout! Learn more

10-Day Weather Forecast

Advertisements
Track Severe Weather on mobile